sensor_id;sensor_type;location;lat;lon;timestamp;P1;durP1;ratioP1;P2;durP2;ratioP2
63010;SDS011;49100;48.842;2.166;2023-03-01T00:11:27;17.75;;;12.75;;
63010;SDS011;49100;48.842;2.166;2023-03-01T00:14:12;17.00;;;13.25;;
63010;SDS011;49100;48.842;2.166;2023-03-01T00:16:57;19.00;;;17.25;;
63010;SDS011;49100;48.842;2.166;2023-03-01T00:19:41;25.25;;;19.25;;
63010;SDS011;49100;48.842;2.166;2023-03-01T00:22:26;27.75;;;25.50;;
63010;SDS011;49100;48.842;2.166;2023-03-01T00:25:11;22.25;;;18.75;;
63010;SDS011;49100;48.842;2.166;2023-03-01T00:27:56;23.50;;;20.25;;
63010;SDS011;49100;48.842;2.166;2023-03-01T00:30:40;26.00;;;20.25;;
63010;SDS011;49100;48.842;2.166;2023-03-01T00:33:25;24.00;;;20.00;;
63010;SDS011;49100;48.842;2.166;2023-03-01T00:36:10;23.50;;;20.50;;
63010;SDS011;49100;48.842;2.166;2023-03-01T00:38:55;26.25;;;19.75;;
63010;SDS011;49100;48.842;2.166;2023-03-01T00:41:39;25.50;;;21.00;;
63010;SDS011;49100;48.842;2.166;2023-03-01T00:44:23;21.75;;;18.00;;
63010;SDS011;49100;48.842;2.166;2023-03-01T00:47:08;23.25;;;17.00;;
63010;SDS011;49100;48.842;2.166;2023-03-01T00:49:52;20.00;;;14.75;;
63010;SDS011;49100;48.842;2.166;2023-03-01T00:52:36;20.50;;;14.50;;
63010;SDS011;49100;48.842;2.166;2023-03-01T00:55:21;19.75;;;15.00;;
63010;SDS011;49100;48.842;2.166;2023-03-01T00:58:05;20.75;;;16.00;;
63010;SDS011;49100;48.842;2.166;2023-03-01T01:00:50;17.25;;;10.75;;
63010;SDS011;49100;48.842;2.166;2023-03-01T01:03:35;61.00;;;47.25;;
63010;SDS011;49100;48.842;2.166;2023-03-01T01:06:20;56.00;;;44.50;;
63010;SDS011;49100;48.842;2.166;2023-03-01T01:09:05;22.25;;;18.75;;
63010;SDS011;49100;48.842;2.166;2023-03-01T01:11:51;31.75;;;26.00;;
63010;SDS011;49100;48.842;2.166;2023-03-01T01:14:49;19.25;;;15.25;;
63010;SDS011;49100;48.842;2.166;2023-03-01T01:17:34;11.50;;;9.00;;
63010;SDS011;49100;48.842;2.166;2023-03-01T01:20:18;13.00;;;9.75;;
63010;SDS011;49100;48.842;2.166;2023-03-01T01:23:02;16.25;;;10.25;;
63010;SDS011;49100;48.842;2.166;2023-03-01T01:25:49;12.50;;;9.00;;
63010;SDS011;49100;48.842;2.166;2023-03-01T01:28:33;13.50;;;8.75;;
63010;SDS011;49100;48.842;2.166;2023-03-01T01:31:17;10.25;;;9.75;;
63010;SDS011;49100;48.842;2.166;2023-03-01T01:34:02;10.25;;;8.00;;
63010;SDS011;49100;48.842;2.166;2023-03-01T01:36:48;10.75;;;7.00;;
63010;SDS011;49100;48.842;2.166;2023-03-01T01:39:34;11.50;;;8.00;;
63010;SDS011;49100;48.842;2.166;2023-03-01T01:42:19;6.00;;;5.25;;
63010;SDS011;49100;48.842;2.166;2023-03-01T01:48:20;12.00;;;7.00;;
63010;SDS011;49100;48.842;2.166;2023-03-01T01:51:06;10.50;;;8.50;;
63010;SDS011;49100;48.842;2.166;2023-03-01T01:53:53;9.00;;;6.50;;
63010;SDS011;49100;48.842;2.166;2023-03-01T01:56:40;9.25;;;9.00;;
63010;SDS011;49100;48.842;2.166;2023-03-01T01:59:26;10.75;;;8.00;;
63010;SDS011;49100;48.842;2.166;2023-03-01T02:05:03;15.50;;;10.50;;
63010;SDS011;49100;48.842;2.166;2023-03-01T02:07:53;15.50;;;12.00;;
63010;SDS011;49100;48.842;2.166;2023-03-01T02:10:38;9.75;;;8.50;;
63010;SDS011;49100;48.842;2.166;2023-03-01T02:13:23;11.75;;;9.75;;
63010;SDS011;49100;48.842;2.166;2023-03-01T02:16:08;14.00;;;11.50;;
63010;SDS011;49100;48.842;2.166;2023-03-01T02:18:53;11.75;;;9.25;;
63010;SDS011;49100;48.842;2.166;2023-03-01T02:21:46;14.50;;;10.25;;
63010;SDS011;49100;48.842;2.166;2023-03-01T02:24:40;12.50;;;8.50;;
63010;SDS011;49100;48.842;2.166;2023-03-01T02:30:32;13.00;;;10.00;;
63010;SDS011;49100;48.842;2.166;2023-03-01T02:33:17;13.25;;;11.25;;
63010;SDS011;49100;48.842;2.166;2023-03-01T02:36:06;11.75;;;10.50;;
63010;SDS011;49100;48.842;2.166;2023-03-01T02:38:54;13.75;;;11.75;;
63010;SDS011;49100;48.842;2.166;2023-03-01T02:41:41;11.50;;;8.50;;
63010;SDS011;49100;48.842;2.166;2023-03-01T02:44:26;12.50;;;8.50;;
63010;SDS011;49100;48.842;2.166;2023-03-01T02:47:11;7.25;;;7.00;;
63010;SDS011;49100;48.842;2.166;2023-03-01T02:49:55;10.50;;;10.00;;
63010;SDS011;49100;48.842;2.166;2023-03-01T02:52:45;12.00;;;9.25;;
63010;SDS011;49100;48.842;2.166;2023-03-01T02:55:29;13.00;;;9.25;;
63010;SDS011;49100;48.842;2.166;2023-03-01T02:58:14;15.75;;;12.25;;
63010;SDS011;49100;48.842;2.166;2023-03-01T03:00:59;14.25;;;10.00;;
63010;SDS011;49100;48.842;2.166;2023-03-01T03:03:44;14.50;;;12.25;;
63010;SDS011;49100;48.842;2.166;2023-03-01T03:06:28;14.50;;;11.50;;
63010;SDS011;49100;48.842;2.166;2023-03-01T03:09:13;14.25;;;11.75;;
63010;SDS011;49100;48.842;2.166;2023-03-01T03:11:58;17.00;;;11.25;;
63010;SDS011;49100;48.842;2.166;2023-03-01T03:14:42;14.25;;;11.25;;
63010;SDS011;49100;48.842;2.166;2023-03-01T03:17:27;17.25;;;12.00;;
63010;SDS011;49100;48.842;2.166;2023-03-01T03:20:12;12.00;;;10.25;;
63010;SDS011;49100;48.842;2.166;2023-03-01T03:22:57;12.25;;;10.50;;
63010;SDS011;49100;48.842;2.166;2023-03-01T03:25:44;14.25;;;9.25;;
63010;SDS011;49100;48.842;2.166;2023-03-01T03:28:32;10.75;;;9.75;;
63010;SDS011;49100;48.842;2.166;2023-03-01T03:31:16;12.75;;;10.50;;
63010;SDS011;49100;48.842;2.166;2023-03-01T03:34:01;11.50;;;9.75;;
63010;SDS011;49100;48.842;2.166;2023-03-01T03:36:45;13.75;;;10.00;;
63010;SDS011;49100;48.842;2.166;2023-03-01T03:39:29;8.25;;;6.75;;
63010;SDS011;49100;48.842;2.166;2023-03-01T03:42:18;14.25;;;9.00;;
63010;SDS011;49100;48.842;2.166;2023-03-01T03:45:03;12.00;;;12.00;;
63010;SDS011;49100;48.842;2.166;2023-03-01T03:47:47;15.50;;;10.75;;
63010;SDS011;49100;48.842;2.166;2023-03-01T03:50:32;11.25;;;10.00;;
63010;SDS011;49100;48.842;2.166;2023-03-01T03:53:17;12.50;;;9.25;;
63010;SDS011;49100;48.842;2.166;2023-03-01T03:56:02;14.50;;;11.00;;
63010;SDS011;49100;48.842;2.166;2023-03-01T03:58:46;9.00;;;9.00;;
63010;SDS011;49100;48.842;2.166;2023-03-01T04:01:31;12.50;;;11.00;;
63010;SDS011;49100;48.842;2.166;2023-03-01T04:04:15;14.25;;;8.50;;
63010;SDS011;49100;48.842;2.166;2023-03-01T04:07:02;12.75;;;10.00;;
63010;SDS011;49100;48.842;2.166;2023-03-01T04:09:47;13.50;;;8.50;;
63010;SDS011;49100;48.842;2.166;2023-03-01T04:12:32;8.75;;;8.25;;
63010;SDS011;49100;48.842;2.166;2023-03-01T04:15:18;15.50;;;11.50;;
63010;SDS011;49100;48.842;2.166;2023-03-01T04:18:02;12.75;;;10.00;;
63010;SDS011;49100;48.842;2.166;2023-03-01T04:20:46;9.75;;;9.00;;
63010;SDS011;49100;48.842;2.166;2023-03-01T04:23:31;14.50;;;10.00;;
63010;SDS011;49100;48.842;2.166;2023-03-01T04:26:15;14.50;;;10.50;;
63010;SDS011;49100;48.842;2.166;2023-03-01T04:29:00;18.75;;;12.00;;
63010;SDS011;49100;48.842;2.166;2023-03-01T04:31:44;15.00;;;11.75;;
63010;SDS011;49100;48.842;2.166;2023-03-01T04:34:29;14.75;;;11.25;;
63010;SDS011;49100;48.842;2.166;2023-03-01T04:37:14;14.75;;;12.75;;
63010;SDS011;49100;48.842;2.166;2023-03-01T04:39:59;16.25;;;12.00;;
63010;SDS011;49100;48.842;2.166;2023-03-01T04:42:44;17.00;;;11.50;;
63010;SDS011;49100;48.842;2.166;2023-03-01T04:45:28;19.25;;;12.00;;
63010;SDS011;49100;48.842;2.166;2023-03-01T04:48:12;19.00;;;11.50;;
63010;SDS011;49100;48.842;2.166;2023-03-01T04:50:58;33.00;;;20.75;;
63010;SDS011;49100;48.842;2.166;2023-03-01T04:53:42;23.50;;;17.00;;
63010;SDS011;49100;48.842;2.166;2023-03-01T04:56:27;14.25;;;12.75;;
63010;SDS011;49100;48.842;2.166;2023-03-01T04:59:11;16.25;;;10.50;;
63010;SDS011;49100;48.842;2.166;2023-03-01T05:01:56;16.50;;;12.25;;
63010;SDS011;49100;48.842;2.166;2023-03-01T05:04:40;13.75;;;11.75;;
63010;SDS011;49100;48.842;2.166;2023-03-01T05:07:25;16.25;;;9.25;;
63010;SDS011;49100;48.842;2.166;2023-03-01T05:10:10;12.75;;;11.00;;
63010;SDS011;49100;48.842;2.166;2023-03-01T05:12:54;13.75;;;10.50;;
63010;SDS011;49100;48.842;2.166;2023-03-01T05:15:53;18.00;;;12.00;;
63010;SDS011;49100;48.842;2.166;2023-03-01T05:18:37;14.75;;;11.50;;
63010;SDS011;49100;48.842;2.166;2023-03-01T05:21:22;11.25;;;10.00;;
63010;SDS011;49100;48.842;2.166;2023-03-01T05:24:06;15.75;;;11.00;;
63010;SDS011;49100;48.842;2.166;2023-03-01T05:26:55;18.50;;;13.00;;
63010;SDS011;49100;48.842;2.166;2023-03-01T05:29:39;17.75;;;14.00;;
63010;SDS011;49100;48.842;2.166;2023-03-01T05:32:23;17.75;;;14.00;;
63010;SDS011;49100;48.842;2.166;2023-03-01T05:35:08;21.50;;;14.75;;
63010;SDS011;49100;48.842;2.166;2023-03-01T05:37:53;23.25;;;16.50;;
63010;SDS011;49100;48.842;2.166;2023-03-01T05:40:37;22.75;;;17.00;;
63010;SDS011;49100;48.842;2.166;2023-03-01T05:43:21;22.50;;;20.75;;
63010;SDS011;49100;48.842;2.166;2023-03-01T05:46:06;23.00;;;16.50;;
63010;SDS011;49100;48.842;2.166;2023-03-01T05:48:50;20.25;;;16.50;;
63010;SDS011;49100;48.842;2.166;2023-03-01T05:51:34;18.75;;;16.25;;
63010;SDS011;49100;48.842;2.166;2023-03-01T05:54:20;21.50;;;17.00;;
63010;SDS011;49100;48.842;2.166;2023-03-01T05:57:04;16.75;;;16.25;;
63010;SDS011;49100;48.842;2.166;2023-03-01T05:59:49;21.50;;;18.50;;
63010;SDS011;49100;48.842;2.166;2023-03-01T06:02:33;20.75;;;16.75;;
63010;SDS011;49100;48.842;2.166;2023-03-01T06:05:18;26.25;;;20.25;;
63010;SDS011;49100;48.842;2.166;2023-03-01T06:08:03;22.50;;;16.25;;
63010;SDS011;49100;48.842;2.166;2023-03-01T06:10:47;17.25;;;15.25;;
63010;SDS011;49100;48.842;2.166;2023-03-01T06:13:31;24.25;;;17.50;;
63010;SDS011;49100;48.842;2.166;2023-03-01T06:16:16;19.75;;;15.00;;
63010;SDS011;49100;48.842;2.166;2023-03-01T06:19:00;27.50;;;18.00;;
63010;SDS011;49100;48.842;2.166;2023-03-01T06:21:44;23.00;;;19.00;;
63010;SDS011;49100;48.842;2.166;2023-03-01T06:24:29;27.00;;;19.75;;
63010;SDS011;49100;48.842;2.166;2023-03-01T06:27:13;21.75;;;17.00;;
63010;SDS011;49100;48.842;2.166;2023-03-01T06:29:57;24.50;;;20.50;;
63010;SDS011;49100;48.842;2.166;2023-03-01T06:32:42;18.75;;;16.25;;
63010;SDS011;49100;48.842;2.166;2023-03-01T06:35:26;21.25;;;18.75;;
63010;SDS011;49100;48.842;2.166;2023-03-01T06:38:13;29.50;;;20.75;;
63010;SDS011;49100;48.842;2.166;2023-03-01T06:41:02;29.75;;;22.75;;
63010;SDS011;49100;48.842;2.166;2023-03-01T06:43:47;26.25;;;23.75;;
63010;SDS011;49100;48.842;2.166;2023-03-01T06:46:32;37.00;;;30.75;;
63010;SDS011;49100;48.842;2.166;2023-03-01T06:49:16;33.25;;;28.75;;
63010;SDS011;49100;48.842;2.166;2023-03-01T06:52:01;29.00;;;26.00;;
63010;SDS011;49100;48.842;2.166;2023-03-01T06:54:46;34.75;;;30.00;;
63010;SDS011;49100;48.842;2.166;2023-03-01T06:57:30;54.50;;;39.00;;
63010;SDS011;49100;48.842;2.166;2023-03-01T07:00:14;57.75;;;43.75;;
63010;SDS011;49100;48.842;2.166;2023-03-01T07:02:59;56.75;;;46.25;;
63010;SDS011;49100;48.842;2.166;2023-03-01T07:05:47;60.00;;;45.00;;
63010;SDS011;49100;48.842;2.166;2023-03-01T07:08:32;46.25;;;38.25;;
63010;SDS011;49100;48.842;2.166;2023-03-01T07:11:16;45.25;;;33.75;;
63010;SDS011;49100;48.842;2.166;2023-03-01T07:14:01;41.25;;;30.25;;
63010;SDS011;49100;48.842;2.166;2023-03-01T07:16:46;28.25;;;22.75;;
63010;SDS011;49100;48.842;2.166;2023-03-01T07:19:33;33.75;;;26.00;;
63010;SDS011;49100;48.842;2.166;2023-03-01T07:22:17;34.25;;;27.00;;
63010;SDS011;49100;48.842;2.166;2023-03-01T07:25:01;26.75;;;23.25;;
63010;SDS011;49100;48.842;2.166;2023-03-01T07:27:52;29.00;;;21.50;;
63010;SDS011;49100;48.842;2.166;2023-03-01T07:30:37;27.75;;;23.00;;
63010;SDS011;49100;48.842;2.166;2023-03-01T07:33:21;27.00;;;22.50;;
63010;SDS011;49100;48.842;2.166;2023-03-01T07:36:05;34.25;;;30.25;;
63010;SDS011;49100;48.842;2.166;2023-03-01T07:38:50;29.50;;;27.00;;
63010;SDS011;49100;48.842;2.166;2023-03-01T07:41:35;28.50;;;25.25;;
63010;SDS011;49100;48.842;2.166;2023-03-01T07:44:19;37.50;;;27.75;;
63010;SDS011;49100;48.842;2.166;2023-03-01T07:47:04;40.50;;;29.75;;
63010;SDS011;49100;48.842;2.166;2023-03-01T07:49:48;18.00;;;15.00;;
63010;SDS011;49100;48.842;2.166;2023-03-01T07:52:49;18.75;;;12.50;;
63010;SDS011;49100;48.842;2.166;2023-03-01T07:55:34;15.50;;;13.50;;
63010;SDS011;49100;48.842;2.166;2023-03-01T07:58:18;10.75;;;7.50;;
63010;SDS011;49100;48.842;2.166;2023-03-01T08:01:04;11.75;;;8.75;;
63010;SDS011;49100;48.842;2.166;2023-03-01T08:03:48;12.50;;;8.50;;
63010;SDS011;49100;48.842;2.166;2023-03-01T08:06:33;6.75;;;6.50;;
63010;SDS011;49100;48.842;2.166;2023-03-01T08:09:17;11.00;;;8.75;;
63010;SDS011;49100;48.842;2.166;2023-03-01T08:12:01;12.00;;;8.75;;
63010;SDS011;49100;48.842;2.166;2023-03-01T08:14:47;7.50;;;6.25;;
63010;SDS011;49100;48.842;2.166;2023-03-01T08:17:31;9.25;;;8.00;;
63010;SDS011;49100;48.842;2.166;2023-03-01T08:20:15;14.00;;;10.50;;
63010;SDS011;49100;48.842;2.166;2023-03-01T08:23:00;9.75;;;9.75;;
63010;SDS011;49100;48.842;2.166;2023-03-01T08:25:44;10.75;;;8.25;;
63010;SDS011;49100;48.842;2.166;2023-03-01T08:28:29;10.75;;;8.25;;
63010;SDS011;49100;48.842;2.166;2023-03-01T08:31:24;13.00;;;8.50;;
63010;SDS011;49100;48.842;2.166;2023-03-01T08:34:10;8.00;;;8.00;;
63010;SDS011;49100;48.842;2.166;2023-03-01T08:36:55;7.00;;;6.50;;
63010;SDS011;49100;48.842;2.166;2023-03-01T08:39:39;7.50;;;6.00;;
63010;SDS011;49100;48.842;2.166;2023-03-01T08:42:23;12.25;;;9.00;;
63010;SDS011;49100;48.842;2.166;2023-03-01T08:45:09;8.50;;;7.25;;
63010;SDS011;49100;48.842;2.166;2023-03-01T08:47:53;8.75;;;8.25;;
63010;SDS011;49100;48.842;2.166;2023-03-01T08:50:38;9.00;;;7.50;;
63010;SDS011;49100;48.842;2.166;2023-03-01T08:53:22;7.75;;;5.50;;
63010;SDS011;49100;48.842;2.166;2023-03-01T08:56:07;11.25;;;6.50;;
63010;SDS011;49100;48.842;2.166;2023-03-01T08:58:51;10.00;;;7.75;;
63010;SDS011;49100;48.842;2.166;2023-03-01T09:01:36;11.00;;;7.25;;
63010;SDS011;49100;48.842;2.166;2023-03-01T09:04:21;8.25;;;6.75;;
63010;SDS011;49100;48.842;2.166;2023-03-01T09:07:05;8.50;;;8.25;;
63010;SDS011;49100;48.842;2.166;2023-03-01T09:09:50;11.25;;;8.00;;
63010;SDS011;49100;48.842;2.166;2023-03-01T09:12:37;10.25;;;7.50;;
63010;SDS011;49100;48.842;2.166;2023-03-01T09:15:21;11.00;;;7.25;;
63010;SDS011;49100;48.842;2.166;2023-03-01T09:18:05;6.25;;;5.75;;
63010;SDS011;49100;48.842;2.166;2023-03-01T09:20:50;11.50;;;6.50;;
63010;SDS011;49100;48.842;2.166;2023-03-01T09:23:35;13.50;;;7.00;;
63010;SDS011;49100;48.842;2.166;2023-03-01T09:26:25;9.00;;;8.50;;
63010;SDS011;49100;48.842;2.166;2023-03-01T09:29:09;10.75;;;9.25;;
63010;SDS011;49100;48.842;2.166;2023-03-01T09:31:53;10.25;;;7.75;;
63010;SDS011;49100;48.842;2.166;2023-03-01T09:34:39;9.50;;;9.25;;
63010;SDS011;49100;48.842;2.166;2023-03-01T09:37:41;11.25;;;9.75;;
63010;SDS011;49100;48.842;2.166;2023-03-01T09:40:28;7.50;;;6.75;;
63010;SDS011;49100;48.842;2.166;2023-03-01T09:43:18;14.25;;;10.50;;
63010;SDS011;49100;48.842;2.166;2023-03-01T09:46:06;13.50;;;8.50;;
63010;SDS011;49100;48.842;2.166;2023-03-01T09:48:56;12.00;;;10.00;;
63010;SDS011;49100;48.842;2.166;2023-03-01T09:51:41;9.75;;;8.00;;
63010;SDS011;49100;48.842;2.166;2023-03-01T09:54:26;7.00;;;5.25;;
63010;SDS011;49100;48.842;2.166;2023-03-01T09:57:14;8.25;;;5.50;;
63010;SDS011;49100;48.842;2.166;2023-03-01T10:32:01;12.00;;;8.75;;
63010;SDS011;49100;48.842;2.166;2023-03-01T10:34:50;11.50;;;7.50;;
63010;SDS011;49100;48.842;2.166;2023-03-01T10:37:34;13.75;;;11.00;;
63010;SDS011;49100;48.842;2.166;2023-03-01T10:40:20;8.75;;;6.00;;
63010;SDS011;49100;48.842;2.166;2023-03-01T10:43:04;8.00;;;6.75;;
63010;SDS011;49100;48.842;2.166;2023-03-01T10:45:49;9.75;;;9.75;;
63010;SDS011;49100;48.842;2.166;2023-03-01T10:48:33;10.00;;;5.25;;
63010;SDS011;49100;48.842;2.166;2023-03-01T10:51:17;7.00;;;6.25;;
63010;SDS011;49100;48.842;2.166;2023-03-01T10:54:04;9.50;;;7.00;;
63010;SDS011;49100;48.842;2.166;2023-03-01T10:56:50;6.00;;;6.00;;
63010;SDS011;49100;48.842;2.166;2023-03-01T10:59:38;7.00;;;5.00;;
63010;SDS011;49100;48.842;2.166;2023-03-01T11:02:29;12.00;;;8.25;;
63010;SDS011;49100;48.842;2.166;2023-03-01T11:07:59;10.00;;;7.75;;
63010;SDS011;49100;48.842;2.166;2023-03-01T11:10:44;8.50;;;5.50;;
63010;SDS011;49100;48.842;2.166;2023-03-01T11:13:28;9.50;;;6.50;;
63010;SDS011;49100;48.842;2.166;2023-03-01T11:16:13;8.00;;;6.75;;
63010;SDS011;49100;48.842;2.166;2023-03-01T11:19:19;8.25;;;8.25;;
63010;SDS011;49100;48.842;2.166;2023-03-01T11:22:03;8.50;;;7.00;;
63010;SDS011;49100;48.842;2.166;2023-03-01T11:24:50;8.50;;;6.75;;
63010;SDS011;49100;48.842;2.166;2023-03-01T11:27:49;11.25;;;8.00;;
63010;SDS011;49100;48.842;2.166;2023-03-01T11:33:47;8.00;;;7.50;;
63010;SDS011;49100;48.842;2.166;2023-03-01T11:39:28;8.00;;;6.50;;
63010;SDS011;49100;48.842;2.166;2023-03-01T11:42:22;12.25;;;7.75;;
63010;SDS011;49100;48.842;2.166;2023-03-01T11:45:11;12.00;;;9.00;;
63010;SDS011;49100;48.842;2.166;2023-03-01T11:50:44;10.25;;;8.50;;
63010;SDS011;49100;48.842;2.166;2023-03-01T12:10:37;12.75;;;9.00;;
63010;SDS011;49100;48.842;2.166;2023-03-01T12:16:19;11.25;;;8.50;;
63010;SDS011;49100;48.842;2.166;2023-03-01T12:19:11;9.25;;;8.00;;
63010;SDS011;49100;48.842;2.166;2023-03-01T12:33:26;15.75;;;9.00;;
63010;SDS011;49100;48.842;2.166;2023-03-01T12:39:16;11.25;;;8.00;;
63010;SDS011;49100;48.842;2.166;2023-03-01T12:50:53;11.00;;;8.75;;
63010;SDS011;49100;48.842;2.166;2023-03-01T12:53:41;9.50;;;8.25;;
63010;SDS011;49100;48.842;2.166;2023-03-01T12:56:32;10.00;;;8.75;;
63010;SDS011;49100;48.842;2.166;2023-03-01T13:04:52;11.25;;;7.50;;
63010;SDS011;49100;48.842;2.166;2023-03-01T13:10:34;9.25;;;7.50;;
63010;SDS011;49100;48.842;2.166;2023-03-01T13:13:23;15.75;;;8.00;;
63010;SDS011;49100;48.842;2.166;2023-03-01T13:16:22;14.50;;;9.00;;
63010;SDS011;49100;48.842;2.166;2023-03-01T13:19:23;10.25;;;8.25;;
63010;SDS011;49100;48.842;2.166;2023-03-01T13:22:27;14.75;;;8.00;;
63010;SDS011;49100;48.842;2.166;2023-03-01T13:25:19;9.50;;;8.00;;
63010;SDS011;49100;48.842;2.166;2023-03-01T13:31:56;14.25;;;9.25;;
63010;SDS011;49100;48.842;2.166;2023-03-01T13:37:21;10.25;;;8.50;;
63010;SDS011;49100;48.842;2.166;2023-03-01T13:40:57;16.25;;;10.75;;
63010;SDS011;49100;48.842;2.166;2023-03-01T13:46:22;12.75;;;8.75;;
63010;SDS011;49100;48.842;2.166;2023-03-01T13:49:09;11.75;;;10.00;;
63010;SDS011;49100;48.842;2.166;2023-03-01T13:51:57;11.25;;;11.00;;
63010;SDS011;49100;48.842;2.166;2023-03-01T13:54:41;12.50;;;8.25;;
63010;SDS011;49100;48.842;2.166;2023-03-01T13:57:26;15.75;;;9.50;;
63010;SDS011;49100;48.842;2.166;2023-03-01T14:03:17;10.75;;;7.75;;
63010;SDS011;49100;48.842;2.166;2023-03-01T14:06:09;12.25;;;9.50;;
63010;SDS011;49100;48.842;2.166;2023-03-01T14:09:08;13.50;;;10.50;;
63010;SDS011;49100;48.842;2.166;2023-03-01T14:12:13;15.00;;;11.50;;
63010;SDS011;49100;48.842;2.166;2023-03-01T14:15:19;15.25;;;11.00;;
63010;SDS011;49100;48.842;2.166;2023-03-01T14:18:12;17.00;;;10.75;;
63010;SDS011;49100;48.842;2.166;2023-03-01T14:20:59;12.75;;;10.50;;
63010;SDS011;49100;48.842;2.166;2023-03-01T14:23:43;15.50;;;10.50;;
63010;SDS011;49100;48.842;2.166;2023-03-01T14:26:28;10.25;;;9.75;;
63010;SDS011;49100;48.842;2.166;2023-03-01T14:29:27;10.75;;;10.25;;
63010;SDS011;49100;48.842;2.166;2023-03-01T14:32:19;11.50;;;11.00;;
63010;SDS011;49100;48.842;2.166;2023-03-01T14:35:18;20.00;;;10.75;;
63010;SDS011;49100;48.842;2.166;2023-03-01T14:38:03;18.75;;;11.50;;
63010;SDS011;49100;48.842;2.166;2023-03-01T14:40:56;12.00;;;10.50;;
63010;SDS011;49100;48.842;2.166;2023-03-01T14:43:43;14.50;;;12.75;;
63010;SDS011;49100;48.842;2.166;2023-03-01T14:46:32;15.75;;;12.50;;
63010;SDS011;49100;48.842;2.166;2023-03-01T14:49:19;13.25;;;13.25;;
63010;SDS011;49100;48.842;2.166;2023-03-01T14:54:52;21.75;;;14.75;;
63010;SDS011;49100;48.842;2.166;2023-03-01T14:57:42;12.25;;;11.50;;
63010;SDS011;49100;48.842;2.166;2023-03-01T15:00:27;19.75;;;15.25;;
63010;SDS011;49100;48.842;2.166;2023-03-01T15:03:13;19.25;;;14.25;;
63010;SDS011;49100;48.842;2.166;2023-03-01T15:06:01;14.50;;;14.00;;
63010;SDS011;49100;48.842;2.166;2023-03-01T15:08:47;13.00;;;8.00;;
63010;SDS011;49100;48.842;2.166;2023-03-01T15:11:32;14.00;;;10.50;;
63010;SDS011;49100;48.842;2.166;2023-03-01T15:20:15;15.75;;;12.00;;
63010;SDS011;49100;48.842;2.166;2023-03-01T15:23:01;15.00;;;12.50;;
63010;SDS011;49100;48.842;2.166;2023-03-01T15:25:46;10.00;;;10.00;;
63010;SDS011;49100;48.842;2.166;2023-03-01T15:28:31;10.50;;;8.00;;
63010;SDS011;49100;48.842;2.166;2023-03-01T15:31:21;16.00;;;14.00;;
63010;SDS011;49100;48.842;2.166;2023-03-01T15:34:23;15.00;;;11.75;;
63010;SDS011;49100;48.842;2.166;2023-03-01T15:40:24;15.25;;;11.25;;
63010;SDS011;49100;48.842;2.166;2023-03-01T15:43:36;16.50;;;12.75;;
63010;SDS011;49100;48.842;2.166;2023-03-01T15:52:29;13.50;;;12.50;;
63010;SDS011;49100;48.842;2.166;2023-03-01T15:58:01;18.75;;;12.00;;
63010;SDS011;49100;48.842;2.166;2023-03-01T16:00:47;11.75;;;10.25;;
63010;SDS011;49100;48.842;2.166;2023-03-01T16:03:32;14.25;;;13.25;;
63010;SDS011;49100;48.842;2.166;2023-03-01T16:06:16;13.25;;;9.75;;
63010;SDS011;49100;48.842;2.166;2023-03-01T16:09:01;20.50;;;11.75;;
63010;SDS011;49100;48.842;2.166;2023-03-01T16:11:46;13.50;;;8.25;;
63010;SDS011;49100;48.842;2.166;2023-03-01T16:14:31;19.25;;;12.25;;
63010;SDS011;49100;48.842;2.166;2023-03-01T16:17:16;15.50;;;12.75;;
63010;SDS011;49100;48.842;2.166;2023-03-01T16:20:00;15.75;;;13.00;;
63010;SDS011;49100;48.842;2.166;2023-03-01T16:22:45;17.25;;;12.75;;
63010;SDS011;49100;48.842;2.166;2023-03-01T16:25:30;16.50;;;14.00;;
63010;SDS011;49100;48.842;2.166;2023-03-01T16:28:15;16.50;;;11.50;;
63010;SDS011;49100;48.842;2.166;2023-03-01T16:31:00;15.00;;;12.00;;
63010;SDS011;49100;48.842;2.166;2023-03-01T16:33:45;22.25;;;10.25;;
63010;SDS011;49100;48.842;2.166;2023-03-01T16:36:49;16.50;;;13.00;;
63010;SDS011;49100;48.842;2.166;2023-03-01T16:39:34;16.25;;;11.25;;
63010;SDS011;49100;48.842;2.166;2023-03-01T16:42:21;13.50;;;10.75;;
63010;SDS011;49100;48.842;2.166;2023-03-01T16:45:06;12.50;;;11.25;;
63010;SDS011;49100;48.842;2.166;2023-03-01T16:47:52;11.75;;;9.00;;
63010;SDS011;49100;48.842;2.166;2023-03-01T16:50:36;20.50;;;13.75;;
63010;SDS011;49100;48.842;2.166;2023-03-01T16:53:20;23.00;;;12.50;;
63010;SDS011;49100;48.842;2.166;2023-03-01T16:56:05;16.00;;;11.50;;
63010;SDS011;49100;48.842;2.166;2023-03-01T16:58:51;17.00;;;13.50;;
63010;SDS011;49100;48.842;2.166;2023-03-01T17:01:35;15.50;;;12.75;;
63010;SDS011;49100;48.842;2.166;2023-03-01T17:04:25;14.25;;;11.75;;
63010;SDS011;49100;48.842;2.166;2023-03-01T17:07:09;18.00;;;12.25;;
63010;SDS011;49100;48.842;2.166;2023-03-01T17:09:53;16.00;;;12.75;;
63010;SDS011;49100;48.842;2.166;2023-03-01T17:12:38;16.75;;;12.50;;
63010;SDS011;49100;48.842;2.166;2023-03-01T17:15:22;14.00;;;10.00;;
63010;SDS011;49100;48.842;2.166;2023-03-01T17:18:07;14.50;;;12.50;;
63010;SDS011;49100;48.842;2.166;2023-03-01T17:20:52;13.25;;;10.00;;
63010;SDS011;49100;48.842;2.166;2023-03-01T17:23:37;15.00;;;12.25;;
63010;SDS011;49100;48.842;2.166;2023-03-01T17:26:22;16.25;;;10.00;;
63010;SDS011;49100;48.842;2.166;2023-03-01T17:29:06;13.00;;;10.00;;
63010;SDS011;49100;48.842;2.166;2023-03-01T17:35:01;15.50;;;13.25;;
63010;SDS011;49100;48.842;2.166;2023-03-01T17:37:45;14.75;;;11.50;;
63010;SDS011;49100;48.842;2.166;2023-03-01T17:40:30;13.50;;;13.00;;
63010;SDS011;49100;48.842;2.166;2023-03-01T17:43:15;19.00;;;14.00;;
63010;SDS011;49100;48.842;2.166;2023-03-01T17:45:59;15.00;;;11.50;;
63010;SDS011;49100;48.842;2.166;2023-03-01T17:48:44;13.50;;;10.00;;
63010;SDS011;49100;48.842;2.166;2023-03-01T17:51:28;20.25;;;14.25;;
63010;SDS011;49100;48.842;2.166;2023-03-01T17:54:13;15.75;;;13.75;;
63010;SDS011;49100;48.842;2.166;2023-03-01T17:56:58;16.50;;;13.00;;
63010;SDS011;49100;48.842;2.166;2023-03-01T17:59:49;16.25;;;11.00;;
63010;SDS011;49100;48.842;2.166;2023-03-01T18:02:34;14.25;;;12.00;;
63010;SDS011;49100;48.842;2.166;2023-03-01T18:05:18;17.75;;;12.25;;
63010;SDS011;49100;48.842;2.166;2023-03-01T18:08:02;16.00;;;12.50;;
63010;SDS011;49100;48.842;2.166;2023-03-01T18:10:47;17.25;;;13.00;;
63010;SDS011;49100;48.842;2.166;2023-03-01T18:13:31;21.50;;;12.75;;
63010;SDS011;49100;48.842;2.166;2023-03-01T18:16:16;16.25;;;12.75;;
63010;SDS011;49100;48.842;2.166;2023-03-01T18:19:01;13.50;;;13.00;;
63010;SDS011;49100;48.842;2.166;2023-03-01T18:21:46;17.50;;;17.00;;
63010;SDS011;49100;48.842;2.166;2023-03-01T18:24:30;16.50;;;13.25;;
63010;SDS011;49100;48.842;2.166;2023-03-01T18:27:14;36.25;;;19.00;;
63010;SDS011;49100;48.842;2.166;2023-03-01T18:29:58;18.00;;;13.50;;
63010;SDS011;49100;48.842;2.166;2023-03-01T18:32:43;16.50;;;12.25;;
63010;SDS011;49100;48.842;2.166;2023-03-01T18:35:27;15.75;;;13.75;;
63010;SDS011;49100;48.842;2.166;2023-03-01T18:38:14;16.75;;;12.50;;
63010;SDS011;49100;48.842;2.166;2023-03-01T18:40:59;15.00;;;11.75;;
63010;SDS011;49100;48.842;2.166;2023-03-01T18:43:43;16.75;;;11.50;;
63010;SDS011;49100;48.842;2.166;2023-03-01T18:46:28;17.50;;;13.50;;
63010;SDS011;49100;48.842;2.166;2023-03-01T18:49:13;18.00;;;14.75;;
63010;SDS011;49100;48.842;2.166;2023-03-01T18:51:57;14.25;;;11.50;;